Time;durP1;ratioP1;P1;durP2;ratioP2;P2;SDS_P1;SDS_P2;PMS_P1;PMS_P2;Temp;Humidity;BMP_temperature;BMP_pressure;BME280_temperature;BME280_humidity;BME280_pressure;Samples;Min_cycle;Max_cycle;Signal;HPM_P1;HPM_P2
2023/05/30 00:01:43;;;;;;;4.32;1.23;;;15.30;67.40;;;15.51;56.71;101785.13;5136678;28;20047;-69
2023/05/30 00:04:15;;;;;;;3.17;1.25;;;15.20;67.20;;;15.45;56.77;101792.00;5131858;28;20566;-71
2023/05/30 00:06:48;;;;;;;3.60;0.77;;;15.20;67.30;;;15.41;57.21;101798.00;5123952;28;20416;-70
2023/05/30 00:09:20;;;;;;;1.40;0.90;;;15.10;67.60;;;15.36;57.40;101794.34;5136784;28;20043;-69
2023/05/30 00:11:56;;;;;;;3.78;1.35;;;15.10;67.80;;;15.32;57.55;101792.47;5136580;28;20050;-71
2023/05/30 00:14:29;;;;;;;2.70;1.05;;;15.10;68.10;;;15.27;57.82;101796.69;5131312;28;20035;-70
2023/05/30 00:17:02;;;;;;;4.07;1.40;;;15.00;68.20;;;15.24;57.94;101796.56;5134285;28;20055;-70
2023/05/30 00:19:34;;;;;;;4.10;1.10;;;15.00;68.30;;;15.22;57.94;101795.66;5143001;28;20120;-69
2023/05/30 00:22:07;;;;;;;3.17;1.00;;;14.90;68.30;;;15.21;57.76;101801.75;5125303;28;20102;-69
2023/05/30 00:24:39;;;;;;;1.92;1.00;;;14.90;68.20;;;15.19;57.55;101787.66;5124166;28;20043;-69
2023/05/30 00:27:13;;;;;;;4.32;0.90;;;14.90;68.00;;;15.15;57.19;101791.03;5125306;28;20058;-70
2023/05/30 00:29:47;;;;;;;2.42;1.10;;;14.90;67.80;;;15.11;57.44;101773.41;5118170;28;20109;-70
2023/05/30 00:32:19;;;;;;;3.72;1.17;;;14.80;68.00;;;15.07;57.38;101779.41;5126645;28;20245;-70
2023/05/30 00:34:51;;;;;;;1.45;0.70;;;14.80;67.70;;;15.02;57.88;101774.00;5135265;28;20036;-71
2023/05/30 00:37:23;;;;;;;3.28;0.90;;;14.80;68.20;;;15.01;57.28;101776.59;5123954;28;20455;-69
2023/05/30 00:39:57;;;;;;;2.78;0.93;;;14.80;67.70;;;14.95;56.93;101776.38;5139374;28;20055;-69
2023/05/30 00:42:30;;;;;;;3.53;0.90;;;14.70;67.40;;;14.90;56.96;101778.84;5114856;28;20067;-70
2023/05/30 00:45:05;;;;;;;2.97;0.90;;;14.70;67.30;;;14.86;57.16;101783.09;5140627;28;20220;-70
2023/05/30 00:47:38;;;;;;;3.45;0.93;;;14.60;67.40;;;14.82;56.83;101778.63;5137939;28;20063;-70
2023/05/30 00:50:11;;;;;;;3.97;0.93;;;14.60;67.40;;;14.82;57.03;101778.63;5131225;28;20046;-70
2023/05/30 00:52:43;;;;;;;3.85;0.90;;;14.60;67.40;;;14.80;56.72;101775.06;5113347;28;20038;-70
2023/05/30 00:55:17;;;;;;;2.42;0.80;;;14.60;67.20;;;14.75;56.38;101776.63;5132355;28;20126;-70
2023/05/30 00:57:51;;;;;;;5.28;1.13;;;14.50;67.10;;;14.72;56.29;101779.13;5131486;28;20224;-69
2023/05/30 01:00:27;;;;;;;1.77;1.10;;;14.50;66.80;;;14.70;55.90;101779.94;5134787;28;20034;-72
2023/05/30 01:03:00;;;;;;;3.92;1.13;;;14.40;66.70;;;14.63;56.42;101778.84;5144355;28;20047;-69
2023/05/30 01:05:35;;;;;;;2.92;1.08;;;14.40;66.90;;;14.59;56.12;101783.06;5114072;28;20054;-69
2023/05/30 01:08:07;;;;;;;2.90;0.85;;;14.40;66.70;;;14.56;56.17;101780.34;5144345;28;20215;-69
2023/05/30 01:10:40;;;;;;;2.05;0.75;;;14.30;66.70;;;14.52;56.32;101777.56;5154210;28;20038;-69
2023/05/30 01:13:38;;;;;;;4.22;1.10;;;14.30;66.90;;;14.50;56.38;101774.00;5150638;28;20050;-70
2023/05/30 01:16:18;;;;;;;2.80;1.00;;;14.20;66.90;;;14.44;56.06;101773.75;5134777;28;20102;-70
2023/05/30 01:18:58;;;;;;;2.08;0.90;;;14.20;66.80;;;14.40;56.20;101783.25;5135121;28;20089;-70
2023/05/30 01:21:34;;;;;;;2.60;1.35;;;14.20;66.90;;;14.35;56.30;101777.88;5135837;28;20038;-69
2023/05/30 01:24:15;;;;;;;4.60;0.82;;;14.10;67.00;;;14.31;56.39;101770.72;5125235;28;20106;-70
2023/05/30 01:27:06;;;;;;;2.60;0.95;;;14.10;67.10;;;14.26;56.37;101772.28;5134685;28;20066;-70
2023/05/30 01:29:43;;;;;;;3.28;0.93;;;14.10;67.20;;;14.22;56.43;101766.88;5113231;28;20274;-69
2023/05/30 01:32:16;;;;;;;1.35;0.70;;;14.00;66.90;;;14.19;56.27;101770.28;5130741;28;20437;-70
2023/05/30 01:34:49;;;;;;;2.60;0.88;;;14.00;66.90;;;14.15;56.16;101771.03;5130829;28;20102;-72
2023/05/30 01:37:22;;;;;;;2.42;0.90;;;13.90;66.80;;;14.11;56.22;101779.59;5105386;28;20560;-70
2023/05/30 01:39:54;;;;;;;2.67;0.80;;;13.90;66.90;;;14.09;56.32;101778.66;5138883;28;20039;-69
2023/05/30 01:42:31;;;;;;;2.83;0.80;;;13.80;67.00;;;14.07;56.37;101782.94;5118009;28;20400;-68
2023/05/30 01:45:14;;;;;;;2.97;0.88;;;13.80;67.00;;;14.05;56.15;101784.63;5117091;28;20049;-69
2023/05/30 01:47:56;;;;;;;1.95;0.82;;;13.80;66.80;;;14.03;56.34;101788.94;5125328;28;20051;-70
2023/05/30 01:50:37;;;;;;;5.60;1.02;;;13.80;66.80;;;13.97;56.44;101783.47;5130493;28;20028;-69
2023/05/30 01:53:18;;;;;;;2.47;0.80;;;13.70;66.80;;;13.94;56.19;101788.56;5124196;28;20136;-70
2023/05/30 01:55:55;;;;;;;2.67;0.73;;;13.70;66.70;;;13.93;56.54;101786.78;5129238;28;20049;-70
2023/05/30 01:58:32;;;;;;;2.00;0.52;;;13.70;67.20;;;13.91;57.39;101799.84;5126799;28;20051;-71
2023/05/30 02:01:09;;;;;;;3.83;1.35;;;13.60;67.90;;;13.85;58.33;101800.50;5125757;28;20070;-69
2023/05/30 02:03:41;;;;;;;1.73;1.08;;;13.60;68.80;;;13.82;58.73;101796.88;5121415;28;20492;-68
2023/05/30 02:06:13;;;;;;;3.10;0.60;;;13.60;69.10;;;13.78;58.90;101790.63;5136577;28;20445;-69
2023/05/30 02:08:45;;;;;;;2.22;0.90;;;13.60;69.20;;;13.72;58.83;101797.38;5141034;28;20039;-71
2023/05/30 02:11:18;;;;;;;1.58;0.70;;;13.50;69.10;;;13.69;58.99;101798.16;5138159;28;20043;-71
2023/05/30 02:13:50;;;;;;;2.35;0.80;;;13.50;69.30;;;13.64;59.09;101791.84;5131201;28;20384;-70
2023/05/30 02:16:24;;;;;;;2.70;1.02;;;13.40;69.40;;;13.58;59.56;101797.75;5125026;28;20118;-70
2023/05/30 02:18:57;;;;;;;3.60;1.20;;;13.40;69.90;;;13.56;60.05;101795.88;5133818;28;20078;-69
2023/05/30 02:21:29;;;;;;;3.97;0.65;;;13.30;70.10;;;13.51;60.10;101797.44;5126326;28;20047;-70
2023/05/30 02:24:01;;;;;;;1.75;0.80;;;13.30;70.40;;;13.48;60.58;101802.56;5142100;28;20094;-69
2023/05/30 02:26:35;;;;;;;3.95;0.70;;;13.30;70.60;;;13.45;60.57;101812.94;5126423;28;20040;-69
2023/05/30 02:29:07;;;;;;;2.63;1.00;;;13.20;70.70;;;13.41;60.66;101811.00;5133763;28;20415;-70
2023/05/30 02:31:41;;;;;;;1.15;0.60;;;13.20;71.10;;;13.38;61.38;101810.91;5116401;28;20071;-70
2023/05/30 02:34:13;;;;;;;1.77;0.70;;;13.20;71.40;;;13.34;62.12;101811.59;5110815;28;20051;-69
2023/05/30 02:36:45;;;;;;;2.60;1.33;;;13.10;72.10;;;13.28;62.43;101807.91;5139719;28;20039;-69
2023/05/30 02:39:18;;;;;;;1.98;0.90;;;13.10;72.50;;;13.24;63.27;101810.38;5124292;28;20062;-70
2023/05/30 02:41:50;;;;;;;3.95;1.02;;;13.00;72.90;;;13.17;63.67;101811.81;5125961;28;20452;-70
2023/05/30 02:44:24;;;;;;;1.48;0.90;;;13.00;73.30;;;13.13;63.82;101812.50;5116472;28;20047;-70
2023/05/30 02:46:58;;;;;;;3.05;1.10;;;12.90;73.40;;;13.09;64.66;101821.06;5124758;28;20047;-70
2023/05/30 02:49:32;;;;;;;2.90;0.75;;;12.90;74.10;;;13.04;64.63;101814.75;5108353;28;20134;-69
2023/05/30 02:52:06;;;;;;;1.45;0.70;;;12.80;74.20;;;13.00;65.16;101810.22;5109337;28;20058;-69
2023/05/30 02:54:48;;;;;;;2.17;0.80;;;12.80;74.60;;;12.95;65.39;101807.41;5121769;28;20523;-69
2023/05/30 02:57:38;;;;;;;4.50;0.70;;;12.80;74.80;;;12.88;65.20;101812.31;5139104;28;20493;-69
2023/05/30 03:00:13;;;;;;;2.08;0.90;;;12.70;75.50;;;12.85;65.51;101818.34;5137227;28;20101;-69
2023/05/30 03:02:51;;;;;;;1.98;0.82;;;12.70;75.10;;;12.83;65.83;101819.09;5149075;28;20050;-69
2023/05/30 03:05:23;;;;;;;2.40;0.90;;;12.60;75.30;;;12.82;66.22;101812.06;5143969;28;20050;-70
2023/05/30 03:07:56;;;;;;;1.75;0.80;;;12.60;75.70;;;12.81;66.65;101813.78;5137810;28;20085;-69
2023/05/30 03:10:28;;;;;;;1.98;0.70;;;12.60;76.00;;;12.81;66.85;101815.53;5125003;28;20129;-70
2023/05/30 03:13:00;;;;;;;1.63;0.90;;;12.60;76.40;;;12.76;67.67;101818.81;5140813;28;20049;-70
2023/05/30 03:15:34;;;;;;;2.20;0.93;;;12.60;76.90;;;12.74;68.03;101820.50;5116036;28;20101;-71
2023/05/30 03:18:10;;;;;;;3.60;1.05;;;12.60;77.00;;;12.72;67.88;101818.66;5115852;28;20086;-71
2023/05/30 03:20:42;;;;;;;1.83;0.70;;;12.50;77.10;;;12.68;68.12;101820.22;5130798;28;20158;-70
2023/05/30 03:23:15;;;;;;;1.85;0.68;;;12.50;77.30;;;12.67;68.71;101817.56;5119647;28;20055;-69
2023/05/30 03:25:47;;;;;;;1.08;0.73;;;12.50;77.60;;;12.65;69.02;101820.13;5138450;28;20039;-70
2023/05/30 03:28:20;;;;;;;3.58;1.10;;;12.50;78.00;;;12.61;69.06;101817.28;5135230;28;20057;-69
2023/05/30 03:31:19;;;;;;;1.85;1.10;;;12.40;78.10;;;12.57;69.93;101821.47;5134227;28;20058;-70
2023/05/30 03:33:53;;;;;;;3.53;1.00;;;12.40;78.40;;;12.56;69.51;101821.44;5129213;28;20119;-70
2023/05/30 03:36:26;;;;;;;2.42;0.80;;;12.40;78.60;;;12.54;69.93;101828.31;5140945;28;20047;-69
2023/05/30 03:39:00;;;;;;;;;;;12.40;78.90;;;12.53;70.74;101829.16;5133005;28;20071;-71
2023/05/30 03:41:32;;;;;;;1.35;0.65;;;12.30;79.40;;;12.53;70.96;101830.06;5132091;28;20395;-69
2023/05/30 03:44:05;;;;;;;3.75;1.10;;;12.30;79.60;;;12.51;70.79;101826.44;5132516;28;20042;-70
2023/05/30 03:46:38;;;;;;;2.97;1.02;;;12.30;79.60;;;12.51;71.28;101834.28;5120250;28;20468;-69
2023/05/30 03:49:12;;;;;;;4.07;1.00;;;12.30;79.80;;;12.51;71.46;101831.69;5118896;28;20558;-70
2023/05/30 03:51:44;;;;;;;2.42;1.08;;;12.30;80.10;;;12.49;71.65;101834.25;5144475;28;20058;-70
2023/05/30 03:54:16;;;;;;;5.50;1.13;;;12.30;80.40;;;12.48;72.60;101837.69;5125043;28;20141;-71
2023/05/30 03:56:49;;;;;;;2.35;1.00;;;12.30;81.00;;;12.49;72.77;101841.19;5121983;28;20042;-69
2023/05/30 03:59:21;;;;;;;3.45;0.88;;;12.30;81.20;;;12.48;72.98;101850.75;5141319;28;20133;-69
2023/05/30 04:01:53;;;;;;;3.05;1.13;;;12.30;81.50;;;12.49;73.31;101843.81;5132388;28;20043;-70
2023/05/30 04:04:27;;;;;;;1.75;0.90;;;12.30;81.90;;;12.49;73.55;101847.31;5135518;28;20038;-71
2023/05/30 04:07:00;;;;;;;3.97;0.90;;;12.30;82.00;;;12.51;73.93;101852.59;5144298;28;20070;-69
2023/05/30 04:09:32;;;;;;;4.00;0.85;;;12.30;82.30;;;12.51;73.92;101857.84;5124093;28;20066;-70
2023/05/30 04:12:06;;;;;;;3.20;0.80;;;12.30;82.50;;;12.51;74.33;101852.59;5114647;28;20043;-69
2023/05/30 04:14:38;;;;;;;2.70;0.93;;;12.30;82.70;;;12.52;74.70;101854.41;5114993;28;20058;-69
2023/05/30 04:17:11;;;;;;;4.53;1.15;;;12.30;83.10;;;12.54;74.61;101858.00;5115562;28;20527;-69
2023/05/30 04:19:44;;;;;;;4.45;0.90;;;12.30;83.20;;;12.57;75.07;101858.09;5143616;28;20043;-70
2023/05/30 04:22:17;;;;;;;2.13;0.95;;;12.40;83.50;;;12.59;75.27;101850.34;5118947;28;20637;-69
2023/05/30 04:24:51;;;;;;;3.63;0.90;;;12.40;83.70;;;12.62;75.22;101846.13;5143869;28;20039;-70
2023/05/30 04:27:24;;;;;;;4.72;1.02;;;12.40;83.80;;;12.63;75.18;101857.47;5133018;28;20031;-69
2023/05/30 04:29:57;;;;;;;2.80;1.20;;;12.40;83.90;;;12.63;75.51;101857.47;5168776;23;20048;-71
2023/05/30 04:32:33;;;;;;;2.45;0.98;;;12.50;84.10;;;12.62;75.92;101864.44;5146421;28;20073;-68
2023/05/30 04:35:09;;;;;;;4.40;1.48;;;12.50;84.40;;;12.63;76.35;101863.59;5157926;28;20498;-70
2023/05/30 04:37:43;;;;;;;2.33;1.00;;;12.50;84.70;;;12.65;76.44;101861.97;5156658;28;20073;-70
2023/05/30 04:40:17;;;;;;;7.47;1.30;;;12.50;85.10;;;12.67;76.90;101864.66;5151845;28;20054;-70
2023/05/30 04:42:51;;;;;;;4.03;1.13;;;12.50;85.30;;;12.68;76.77;101862.09;5136197;28;20043;-69
2023/05/30 04:45:28;;;;;;;2.13;0.93;;;12.50;85.40;;;12.74;77.03;101864.97;5161450;28;20053;-70
2023/05/30 04:48:03;;;;;;;5.88;1.15;;;12.60;85.80;;;12.87;77.35;101863.78;5155632;28;20122;-70
2023/05/30 04:50:38;;;;;;;3.92;1.52;;;12.70;86.30;;;13.02;77.80;101864.41;5151020;28;20042;-70
2023/05/30 04:53:10;;;;;;;3.78;1.10;;;12.80;86.50;;;13.20;76.99;101863.38;5139676;28;20455;-69
2023/05/30 04:55:44;;;;;;;4.00;1.73;;;13.00;86.40;;;13.38;76.83;101863.28;5162934;28;20042;-71
2023/05/30 04:58:16;;;;;;;4.15;1.05;;;13.10;86.30;;;13.56;76.52;101864.00;5162863;28;20137;-71
2023/05/30 05:00:50;;;;;;;3.75;1.33;;;13.30;86.10;;;13.74;76.31;101869.97;5156931;28;20073;-68
2023/05/30 05:03:22;;;;;;;2.85;1.23;;;13.50;86.10;;;13.93;75.94;101875.91;5161201;28;20046;-70
2023/05/30 05:05:56;;;;;;;4.65;1.20;;;13.60;85.90;;;14.14;75.95;101871.47;5155159;28;20519;-71
2023/05/30 05:08:29;;;;;;;7.68;1.52;;;13.80;86.00;;;14.34;74.92;101875.75;5162323;28;20038;-71
2023/05/30 05:11:04;;;;;;;4.47;1.58;;;14.00;85.30;;;14.54;74.00;101870.34;5155648;28;20123;-70
2023/05/30 05:13:37;;;;;;;5.22;1.38;;;14.20;84.80;;;14.79;74.17;101879.97;5155477;28;20046;-72
2023/05/30 05:16:09;;;;;;;3.72;1.52;;;14.40;84.90;;;15.02;73.03;101883.41;5146691;28;20547;-70
2023/05/30 05:18:41;;;;;;;6.07;1.77;;;14.60;84.00;;;15.16;72.40;101877.75;5163019;28;20509;-70
2023/05/30 05:21:15;;;;;;;9.02;1.70;;;14.80;83.50;;;15.24;71.73;101885.00;5154684;28;20073;-70
2023/05/30 05:23:47;;;;;;;4.72;1.83;;;14.90;82.90;;;15.47;71.96;101884.91;5154741;28;20050;-70
2023/05/30 05:26:20;;;;;;;7.15;1.42;;;15.00;83.20;;;15.63;70.74;101886.31;5152700;28;20046;-70
2023/05/30 05:28:52;;;;;;;3.45;1.23;;;15.20;82.30;;;15.72;70.45;101883.09;5148277;28;20128;-70
2023/05/30 05:31:25;;;;;;;7.00;1.48;;;15.30;82.00;;;15.73;70.83;101882.25;5154233;28;20508;-72
2023/05/30 05:33:58;;;;;;;5.50;1.48;;;15.30;82.00;;;15.81;70.79;101888.63;5154409;28;20641;-70
2023/05/30 05:36:33;;;;;;;7.18;1.92;;;15.40;82.20;;;15.87;70.23;101886.19;5151509;28;20066;-70
2023/05/30 05:39:05;;;;;;;7.30;1.40;;;15.50;81.70;;;15.95;70.17;101884.66;5137061;28;20055;-70
2023/05/30 05:41:38;;;;;;;4.53;1.20;;;15.50;81.70;;;16.17;70.56;101885.31;5143088;28;20046;-71
2023/05/30 05:44:10;;;;;;;6.68;1.63;;;15.70;82.10;;;16.32;69.92;101884.88;5150928;28;20038;-71
2023/05/30 05:46:43;;;;;;;7.38;1.83;;;15.80;81.80;;;16.29;69.71;101891.81;5156334;28;20046;-69
2023/05/30 05:49:15;;;;;;;4.65;1.58;;;15.80;81.20;;;16.29;69.96;101896.19;5139042;28;20061;-70
2023/05/30 05:51:49;;;;;;;4.95;1.80;;;15.90;81.50;;;16.32;69.99;101896.28;5156964;28;20093;-70
2023/05/30 05:54:22;;;;;;;6.68;1.45;;;15.90;81.60;;;16.36;69.81;101892.00;5144300;28;20050;-72
2023/05/30 05:56:54;;;;;;;9.07;2.00;;;15.90;81.50;;;16.44;69.53;101898.38;5148537;28;20043;-70
2023/05/30 05:59:26;;;;;;;6.40;2.03;;;16.00;81.20;;;16.49;69.35;101895.00;5160317;28;21804;-71
2023/05/30 06:01:58;;;;;;;7.75;1.73;;;16.00;81.10;;;16.45;69.55;101903.69;5155574;28;20325;-71
2023/05/30 06:04:31;;;;;;;8.63;1.80;;;16.10;81.10;;;16.58;69.97;101901.41;5142898;28;20042;-59
2023/05/30 06:07:06;;;;;;;8.15;1.77;;;16.10;81.60;;;16.68;69.66;101904.31;5150028;28;20121;-59
2023/05/30 06:09:38;;;;;;;9.80;2.05;;;16.20;81.50;;;16.77;69.29;101895.81;5145192;28;20054;-58
2023/05/30 06:12:10;;;;;;;7.28;1.77;;;16.30;81.20;;;16.89;69.05;101900.50;5178662;28;20037;-58
2023/05/30 06:14:42;;;;;;;5.07;1.75;;;16.40;81.10;;;17.02;69.16;101902.63;5167130;28;20169;-59
2023/05/30 06:17:15;;;;;;;5.13;1.63;;;16.50;81.40;;;17.12;68.90;101903.75;5165676;28;20058;-60
2023/05/30 06:19:47;;;;;;;6.35;1.70;;;16.60;81.00;;;17.38;68.78;101902.66;5176016;28;20042;-59
2023/05/30 06:22:21;;;;;;;8.02;2.05;;;16.80;81.20;;;17.54;67.67;101904.81;5165353;28;20604;-60
2023/05/30 06:24:53;;;;;;;8.13;2.20;;;16.90;80.20;;;17.62;67.31;101900.63;5170482;28;20121;-62
2023/05/30 06:27:25;;;;;;;5.18;1.70;;;17.10;79.70;;;17.81;66.89;101899.31;5171382;28;20062;-59
2023/05/30 06:29:57;;;;;;;5.18;1.45;;;17.20;79.50;;;18.00;66.41;101899.75;5162294;28;20498;-60
2023/05/30 06:32:29;;;;;;;8.35;1.70;;;17.40;79.10;;;18.20;65.78;101902.81;5170456;28;20074;-59
2023/05/30 06:35:02;;;;;;;9.65;2.58;;;17.60;78.40;;;18.51;65.38;101907.81;5177567;28;20088;-59
2023/05/30 06:37:35;;;;;;;7.63;1.50;;;17.80;78.20;;;18.64;64.34;101907.19;5174725;28;20046;-59
2023/05/30 06:40:09;;;;;;;5.78;2.10;;;18.00;77.40;;;18.80;63.48;101907.56;5168760;28;20406;-60
2023/05/30 06:42:41;;;;;;;9.43;2.42;;;18.20;76.50;;;18.95;63.46;101910.47;5153686;28;20046;-59
2023/05/30 06:45:15;;;;;;;6.75;2.13;;;18.30;76.30;;;19.06;63.17;101910.66;5167695;28;20050;-58
2023/05/30 06:47:47;;;;;;;6.15;1.83;;;18.50;76.00;;;19.24;63.01;101911.00;5173302;28;20551;-60
2023/05/30 06:50:19;;;;;;;5.70;1.70;;;18.60;75.80;;;19.45;62.05;101900.75;5173842;28;20043;-60
2023/05/30 06:52:53;;;;;;;9.82;2.35;;;18.80;75.00;;;19.52;61.33;101912.31;5171461;28;20046;-59
2023/05/30 06:55:25;;;;;;;8.30;1.85;;;18.90;74.30;;;19.62;61.30;101911.63;5165442;28;20057;-59
2023/05/30 06:57:58;;;;;;;5.07;1.73;;;19.00;74.10;;;19.65;61.49;101914.31;5180412;28;20046;-58
2023/05/30 07:00:30;;;;;;;9.07;2.15;;;19.00;74.20;;;19.62;60.49;101908.97;5186064;28;20477;-59
2023/05/30 07:03:02;;;;;;;5.05;1.73;;;19.00;73.40;;;19.49;60.75;101902.56;5185859;28;20098;-59
2023/05/30 07:05:34;;;;;;;8.27;2.00;;;18.90;73.20;;;19.62;61.31;101903.69;5166135;28;20045;-59
2023/05/30 07:08:08;;;;;;;8.05;2.00;;;19.00;74.00;;;19.86;60.71;101912.84;5165737;28;20078;-59
2023/05/30 07:10:40;;;;;;;7.57;1.73;;;19.10;74.30;;;20.11;60.46;101904.38;5149338;28;20061;-62
2023/05/30 07:13:12;;;;;;;7.63;2.00;;;19.40;73.80;;;20.36;59.77;101915.31;5165401;28;20160;-60
2023/05/30 07:15:46;;;;;;;7.40;2.00;;;19.60;72.80;;;20.65;59.09;101908.59;5165283;28;20137;-60
2023/05/30 07:18:18;;;;;;;6.80;2.28;;;19.80;72.30;;;20.77;58.03;101914.03;5165725;28;20116;-60
2023/05/30 07:20:51;;;;;;;6.03;1.90;;;20.00;71.20;;;20.77;58.73;101907.84;5165709;28;20046;-61
2023/05/30 07:23:24;;;;;;;7.43;2.08;;;20.00;71.60;;;20.83;59.18;101918.50;5172866;28;20050;-61
2023/05/30 07:25:57;;;;;;;6.43;1.90;;;20.10;71.90;;;20.90;58.55;101909.75;5164615;28;20046;-57
2023/05/30 07:28:29;;;;;;;5.25;1.80;;;20.20;71.60;;;20.85;57.94;101912.34;5161925;28;20464;-58
2023/05/30 07:31:01;;;;;;;4.68;1.90;;;20.20;70.80;;;20.81;58.56;101910.56;5150678;28;20074;-58
2023/05/30 07:33:33;;;;;;;8.35;2.35;;;20.10;71.20;;;20.81;58.69;101920.28;5154427;28;20146;-58
2023/05/30 07:36:07;;;;;;;5.95;1.80;;;20.10;71.40;;;20.78;58.85;101920.22;5155166;28;20590;-58
2023/05/30 07:38:41;;;;;;;3.95;1.55;;;20.00;71.50;;;20.71;59.42;101918.38;5143784;28;20455;-58
2023/05/30 07:41:13;;;;;;;7.20;2.30;;;20.00;72.00;;;20.75;59.56;101915.78;5145383;28;20081;-59
2023/05/30 07:43:45;;;;;;;5.53;1.67;;;20.00;72.20;;;20.89;59.44;101909.75;5157361;28;20051;-60
2023/05/30 07:46:18;;;;;;;7.70;2.20;;;20.10;72.20;;;20.98;59.31;101909.81;5143593;28;20043;-59
2023/05/30 07:48:50;;;;;;;4.65;1.80;;;20.10;72.10;;;21.10;59.03;101912.59;5155341;28;20071;-58
2023/05/30 07:51:23;;;;;;;5.00;2.05;;;20.30;72.00;;;21.14;58.37;101915.28;5160757;28;20038;-58
2023/05/30 07:53:56;;;;;;;5.75;2.25;;;20.30;71.40;;;21.10;58.26;101908.16;5164775;28;20068;-57
2023/05/30 07:56:29;;;;;;;6.45;1.70;;;20.20;71.40;;;21.19;58.72;101912.69;5162960;28;20092;-56
2023/05/30 07:59:01;;;;;;;4.85;2.00;;;20.20;71.70;;;21.45;58.58;101909.38;5164548;28;20050;-56
2023/05/30 08:01:33;;;;;;;5.45;1.70;;;20.40;72.00;;;21.74;58.03;101910.47;5156049;28;20129;-56
2023/05/30 08:04:06;;;;;;;6.47;1.92;;;20.50;71.80;;;22.01;56.92;101903.56;5157008;28;20049;-56
2023/05/30 08:06:38;;;;;;;3.75;1.70;;;20.60;71.10;;;22.38;56.90;101900.22;5154122;28;20133;-56
2023/05/30 08:09:11;;;;;;;5.90;1.70;;;20.90;71.30;;;22.83;55.41;101911.84;5164001;28;20097;-56
2023/05/30 08:11:45;;;;;;;5.55;2.08;;;21.10;70.60;;;23.13;54.59;101896.84;5163070;28;20038;-56
2023/05/30 08:14:18;;;;;;;8.65;1.90;;;21.30;69.90;;;23.37;54.09;101895.97;5161475;28;20104;-55
2023/05/30 08:16:50;;;;;;;6.35;2.10;;;21.40;69.30;;;23.85;53.54;101903.00;5156746;28;20134;-56
2023/05/30 08:19:23;;;;;;;5.93;2.00;;;21.60;69.20;;;24.37;52.13;101894.84;5152762;28;20078;-56
2023/05/30 08:21:56;;;;;;;6.20;1.75;;;21.90;68.70;;;25.15;51.21;101897.06;5158054;28;20043;-56
2023/05/30 08:24:30;;;;;;;5.60;1.90;;;22.30;68.20;;;25.74;49.73;101895.63;5151092;28;20108;-58
2023/05/30 08:27:02;;;;;;;6.53;1.90;;;22.70;67.10;;;26.31;48.76;101894.97;5158772;28;20070;-58
2023/05/30 08:29:34;;;;;;;3.70;1.50;;;23.00;66.60;;;27.01;47.92;101894.00;5155637;28;20530;-60
2023/05/30 08:32:07;;;;;;;6.95;2.25;;;23.30;66.20;;;27.80;45.80;101900.66;5147807;28;20406;-59
2023/05/30 08:34:40;;;;;;;6.85;1.88;;;23.80;64.50;;;28.51;44.66;101894.75;5142579;28;20077;-59
2023/05/30 08:37:12;;;;;;;8.18;1.90;;;24.40;63.30;;;29.20;43.24;101890.44;5156288;28;20113;-60
2023/05/30 08:39:46;;;;;;;4.15;1.88;;;25.00;61.80;;;29.91;41.90;101890.34;5158895;28;20046;-59
2023/05/30 08:42:18;;;;;;;4.95;2.03;;;25.80;60.40;;;30.47;41.01;101897.69;5159338;28;20046;-59
2023/05/30 08:44:51;;;;;;;7.35;2.50;;;26.40;59.10;;;30.82;40.10;101884.97;5162995;28;20550;-59
2023/05/30 08:47:23;;;;;;;6.60;2.22;;;26.90;57.80;;;31.07;39.94;101894.88;5162284;28;20261;-59
2023/05/30 08:49:56;;;;;;;5.13;2.05;;;27.30;57.00;;;31.33;39.39;101893.13;5151097;28;20125;-59
2023/05/30 08:52:30;;;;;;;6.55;1.95;;;27.50;56.30;;;31.46;39.31;101898.97;5149596;28;20053;-58
2023/05/30 08:55:11;;;;;;;8.13;1.90;;;27.70;56.00;;;31.75;39.53;101896.09;5151794;28;20081;-58
2023/05/30 08:57:51;;;;;;;5.38;1.70;;;28.00;56.30;;;32.13;38.72;101897.41;5158955;28;20118;-58
2023/05/30 09:00:23;;;;;;;6.63;2.10;;;28.30;55.40;;;32.31;38.63;101892.25;5160006;28;20406;-59
2023/05/30 09:02:57;;;;;;;5.13;1.70;;;28.50;54.90;;;32.25;38.30;101895.19;5162156;28;20104;-58
2023/05/30 09:05:30;;;;;;;5.05;1.95;;;28.60;54.50;;;32.31;38.21;101884.16;5154934;28;20054;-58
2023/05/30 09:08:03;;;;;;;5.88;1.90;;;28.70;54.40;;;32.39;38.09;101882.06;5162625;28;20093;-58
2023/05/30 09:10:38;;;;;;;6.13;2.20;;;28.80;54.30;;;32.30;37.91;101880.59;5162759;28;21409;-58
2023/05/30 09:13:10;;;;;;;5.00;1.80;;;28.70;53.80;;;32.04;38.30;101873.50;5162430;28;20040;-56
2023/05/30 09:15:42;;;;;;;7.65;2.22;;;28.50;54.00;;;31.86;39.01;101879.59;5162313;28;20050;-56
2023/05/30 09:18:16;;;;;;;6.32;1.95;;;28.40;54.50;;;31.36;39.45;101879.53;5162802;28;20069;-57
2023/05/30 09:20:48;;;;;;;6.90;2.20;;;28.20;54.40;;;30.88;40.43;101880.25;5158267;28;20046;-57
2023/05/30 09:23:21;;;;;;;5.75;2.10;;;28.00;54.80;;;30.48;40.81;101876.13;5153737;28;20142;-57
2023/05/30 09:25:54;;;;;;;7.70;2.28;;;27.80;55.00;;;29.85;41.42;101866.31;5159868;28;20125;-57
2023/05/30 09:28:28;;;;;;;;;;;27.50;55.20;;;29.02;42.70;101864.09;5164449;28;20525;-56
2023/05/30 09:31:02;;;;;;;9.43;2.67;;;27.00;55.70;;;28.32;44.23;101872.81;5168997;28;20021;-56
2023/05/30 09:33:46;;;;;;;6.65;1.88;;;26.70;56.60;;;27.66;45.40;101872.38;5160853;28;20132;-57
2023/05/30 09:36:20;;;;;;;6.20;2.28;;;26.30;57.30;;;27.07;46.31;101875.19;5158561;28;20058;-57
2023/05/30 09:38:54;;;;;;;5.10;1.90;;;25.90;57.80;;;26.58;46.46;101859.88;5154686;28;20038;-57
2023/05/30 09:41:30;;;;;;;7.97;2.20;;;25.60;57.80;;;26.18;47.33;101863.06;5162242;28;20050;-57
2023/05/30 09:44:06;;;;;;;4.20;1.90;;;25.20;58.30;;;25.83;48.36;101855.50;5154929;28;20499;-57
2023/05/30 09:46:39;;;;;;;3.38;1.83;;;25.00;58.90;;;25.49;49.39;101862.94;5154797;28;20050;-56
2023/05/30 09:49:12;;;;;;;4.88;1.77;;;24.70;59.90;;;25.22;50.31;101855.19;5162739;28;20243;-56
2023/05/30 09:51:45;;;;;;;7.20;1.90;;;24.40;60.40;;;25.04;51.45;101865.16;5162484;28;20078;-56
2023/05/30 09:54:17;;;;;;;5.40;2.25;;;24.20;61.40;;;24.90;51.94;101856.31;5146690;28;20043;-56
2023/05/30 09:56:54;;;;;;;6.30;2.03;;;24.10;62.00;;;24.83;51.51;101854.59;5162786;28;20039;-56
2023/05/30 09:59:26;;;;;;;4.82;1.80;;;24.10;61.80;;;24.81;51.25;101851.06;5162256;28;20054;-56
2023/05/30 10:02:02;;;;;;;6.18;2.13;;;24.00;61.70;;;24.70;50.61;101848.47;5162651;28;20503;-57
2023/05/30 10:04:41;;;;;;;6.10;1.88;;;23.90;61.10;;;24.66;51.66;101840.50;5162365;28;20050;-57
2023/05/30 10:07:14;;;;;;;5.07;1.95;;;23.90;61.90;;;24.80;52.56;101851.97;5162704;28;20576;-56
2023/05/30 10:09:49;;;;;;;8.98;2.22;;;23.90;62.70;;;24.77;51.37;101844.84;5158575;28;20051;-56
2023/05/30 10:12:23;;;;;;;5.78;1.90;;;23.90;62.10;;;24.80;52.30;101835.97;5158791;28;20046;-56
2023/05/30 10:14:55;;;;;;;;;;;23.90;62.70;;;24.78;52.55;101829.75;5164927;28;20125;-56
2023/05/30 10:17:32;;;;;;;4.72;1.75;;;23.90;62.90;;;24.73;52.83;101831.56;5166430;28;19969;-56
2023/05/30 10:20:08;;;;;;;8.80;2.10;;;23.80;63.20;;;24.70;51.67;101831.56;5166558;28;20050;-56
2023/05/30 10:22:44;;;;;;;6.55;2.25;;;23.80;62.40;;;24.78;52.80;101829.75;5162574;28;20035;-56
2023/05/30 10:25:18;;;;;;;6.97;2.42;;;23.80;63.20;;;24.75;53.05;101835.09;5161648;28;20034;-55
2023/05/30 10:27:53;;;;;;;8.27;2.50;;;23.90;63.40;;;24.63;52.98;101831.63;5164752;28;20479;-55
2023/05/30 10:30:28;;;;;;;6.28;2.20;;;23.80;63.50;;;24.61;53.12;101835.19;5227349;22;20046;-78
2023/05/30 10:33:05;;;;;;;4.95;2.00;;;23.80;63.40;;;24.64;53.80;101824.50;5202232;28;20045;-80
2023/05/30 10:35:38;;;;;;;8.10;2.67;;;23.80;64.00;;;24.77;54.16;101827.97;5203393;28;20037;-79
2023/05/30 10:38:12;;;;;;;10.48;2.53;;;23.90;64.50;;;24.87;53.50;101824.34;5208259;28;20099;-78
2023/05/30 10:40:53;;;;;;;7.68;2.40;;;24.00;64.20;;;24.94;53.47;101830.50;5187144;28;20133;-79